Hyundai No.107 — A8CT4 — position and weather

sailwx.info

Track history (hours):
 
Tides and Currents Weather Stations Pressure Air Temp Water Temp Dewpoint Dewpoint Depression Visibility Wind Speed Wind Dir Waves Ship Positions

Hyundai No.107

Last reported at 2017-Jul-26 20:30 UTC. Time now 2017-Jul-26 20:36 UTC.
Position N 45°37' W 125°13'.

Length 184 m; draft 7.7 m.

Type: Cargo ship. MMSI: 636011980.

Date/timePositionNaut miles runAvg speedWind from/ knotsBaromVisibWave heightAir tempDewpointWater temp
2017-Jul-26 20:30N 45°37' W 125°13'1 1.0
2017-Jul-26 20:00N 45°38' W 125°14'1 1.1
2017-Jul-26 19:30N 45°38' W 125°14'1 1.2
2017-Jul-26 19:00N 45°39' W 125°14'1 1.3
2017-Jul-26 18:30N 45°39' W 125°15'1 1.3
2017-Jul-26 18:00N 45°40' W 125°15'1 1.4
2017-Jul-26 17:30N 45°40' W 125°16'1 1.5
2017-Jul-26 17:00N 45°41' W 125°16'1 1.6
2017-Jul-26 16:30N 45°42' W 125°17'1 1.7
2017-Jul-26 16:00N 45°42' W 125°18'1 1.7
2017-Jul-26 15:30N 45°43' W 125°19'1 1.6
2017-Jul-26 15:00N 45°44' W 125°19'1 1.2
2017-Jul-26 14:00N 45°45' W 125°20'1 1.6
2017-Jul-26 13:30N 45°46' W 125°19'1 1.5
2017-Jul-26 13:00N 45°46' W 125°19'1 1.7
2017-Jul-26 12:30N 45°47' W 125°19'1 1.7
2017-Jul-26 12:00N 45°48' W 125°19'1 1.5
2017-Jul-26 11:30N 45°49' W 125°19'1 1.5
2017-Jul-26 11:00N 45°49' W 125°19'1 1.5
2017-Jul-26 10:30N 45°50' W 125°19'1 1.5
2017-Jul-26 10:00N 45°51' W 125°19'1 1.4
2017-Jul-26 09:30N 45°52' W 125°19'1 1.5
2017-Jul-26 09:00N 45°52' W 125°19'1 1.3
2017-Jul-26 08:30N 45°53' W 125°19'1 1.3
2017-Jul-26 08:00N 45°54' W 125°20'1 1.5
2017-Jul-26 07:30N 45°54' W 125°20'1 1.5
2017-Jul-26 07:00N 45°55' W 125°21'1 1.6
2017-Jul-26 06:30N 45°56' W 125°21'1 1.6
2017-Jul-26 06:00N 45°56' W 125°22'1 1.6
2017-Jul-26 05:30N 45°57' W 125°23'1 1.6
2017-Jul-26 05:00N 45°58' W 125°23'1 1.6
2017-Jul-26 04:30N 45°59' W 125°23'1 1.8
2017-Jul-26 04:00N 45°59' W 125°23'1 2.0
2017-Jul-26 03:30N 46°00' W 125°23'1 2.2
2017-Jul-26 03:00N 46°01' W 125°22'1 2.3
2017-Jul-26 02:30N 46°03' W 125°22'1 2.3
2017-Jul-26 02:00N 46°04' W 125°21'1 2.3
2017-Jul-26 01:30N 46°05' W 125°21'1 2.2
2017-Jul-26 01:00N 46°06' W 125°21'1 2.0
2017-Jul-26 00:30N 46°07' W 125°21'1 1.9
2017-Jul-26 00:00N 46°08' W 125°22'1 1.8
2017-Jul-25 23:30N 46°08' W 125°23'1 1.8
2017-Jul-25 23:00N 46°09' W 125°23'2 1.7
2017-Jul-25 21:48N 46°11' W 125°25'1 1.8
2017-Jul-25 21:30N 46°11' W 125°26'1 1.7
2017-Jul-25 21:00N 46°12' W 125°27'4 5.6
2017-Jul-25 20:21N 46°09' W 125°23'3 9.5
2017-Jul-25 20:00N 46°07' W 125°20'5 9.5
2017-Jul-25 19:30N 46°04' W 125°15'5 9.5
2017-Jul-25 19:00N 46°00' W 125°10'5 9.1
2017-Jul-25 18:30N 45°57' W 125°05'5 9.2
2017-Jul-25 18:00N 45°54' W 124°60'5 9.1
2017-Jul-25 17:30N 45°51' W 124°55'5 9.2
2017-Jul-25 17:00N 45°48' W 124°50'5 9.3
2017-Jul-25 16:30N 45°45' W 124°46'5 9.3
2017-Jul-25 16:00N 45°41' W 124°41'5 9.6
2017-Jul-25 15:30N 45°38' W 124°36'5 9.3
2017-Jul-25 15:00N 45°35' W 124°31'1 1.2
2017-Jul-25 14:00N 45°36' W 124°31'1 2.0
2017-Jul-25 13:30N 45°37' W 124°32'1 2.1
2017-Jul-25 13:00N 45°38' W 124°33'1 2.2
2017-Jul-25 12:30N 45°39' W 124°34'1 2.2
2017-Jul-25 12:00N 45°40' W 124°35'1 2.1
2017-Jul-25 11:30N 45°41' W 124°35'1 2.1
2017-Jul-25 11:00N 45°41' W 124°36'1 2.1
2017-Jul-25 10:30N 45°42' W 124°37'1 2.1
2017-Jul-25 10:00N 45°43' W 124°38'1 2.0
2017-Jul-25 09:30N 45°44' W 124°39'1 2.0
2017-Jul-25 09:00N 45°45' W 124°40'1 1.9
2017-Jul-25 08:30N 45°45' W 124°41'1 1.8
2017-Jul-25 08:00N 45°46' W 124°42'1 2.0
2017-Jul-25 07:30N 45°47' W 124°42'1 2.0
2017-Jul-25 07:00N 45°48' W 124°43'1 2.3
2017-Jul-25 06:30N 45°49' W 124°43'1 2.2
2017-Jul-25 06:00N 45°50' W 124°44'1 2.2
2017-Jul-25 05:30N 45°51' W 124°45'1 2.3
2017-Jul-25 05:00N 45°52' W 124°45'1 2.3
2017-Jul-25 04:30N 45°53' W 124°46'1 2.3
2017-Jul-25 04:00N 45°54' W 124°47'1 2.0
2017-Jul-25 03:30N 45°55' W 124°48'1 2.1
2017-Jul-25 03:00N 45°56' W 124°49'1 2.1
2017-Jul-25 02:24N 45°57' W 124°49'1 2.2
2017-Jul-25 02:00N 45°58' W 124°50'1 2.2
2017-Jul-25 01:30N 45°59' W 124°51'1 2.1
2017-Jul-25 01:00N 45°59' W 124°51'1 2.2
2017-Jul-25 00:30N 46°00' W 124°52'1 2.4
2017-Jul-25 00:00N 46°02' W 124°53'1 2.4
2017-Jul-24 23:30N 46°03' W 124°54'1 2.4
2017-Jul-24 23:00N 46°04' W 124°54'1 2.5
2017-Jul-24 22:30N 46°05' W 124°55'1 2.4
2017-Jul-24 22:00N 46°06' W 124°56'1 2.4
2017-Jul-24 21:30N 46°07' W 124°57'1 2.5
2017-Jul-24 21:00N 46°08' W 124°58'1 2.4
2017-Jul-24 20:30N 46°09' W 124°59'1 2.3
2017-Jul-24 20:00N 46°10' W 125°00'3 5.3
2017-Jul-24 19:30N 46°12' W 125°00'714.3
2017-Jul-24 19:00N 46°20' W 125°00'815.7
2017-Jul-24 18:30N 46°27' W 125°00'815.6
2017-Jul-24 18:00N 46°35' W 125°00'815.4
2017-Jul-24 17:30N 46°43' W 125°01'815.4
2017-Jul-24 17:00N 46°50' W 125°04'815.4
2017-Jul-24 16:30N 46°58' W 125°06'815.5
2017-Jul-24 16:00N 47°05' W 125°09'5415.8
2017-Jul-24 12:35N 47°58' W 125°29'215.9
2017-Jul-24 12:28N 47°59' W 125°30'715.0
2017-Jul-24 11:59N 48°06' W 125°25'815.1
2017-Jul-24 11:27N 48°12' W 125°18'715.2
2017-Jul-24 11:00N 48°18' W 125°13'714.3
2017-Jul-24 10:30N 48°24' W 125°07'714.2
2017-Jul-24 10:00N 48°30' W 125°02'713.9
2017-Jul-24 09:31N 48°31' W 124°52'714.9
2017-Jul-24 09:01N 48°30' W 124°41'714.9
2017-Jul-24 08:30N 48°27' W 124°30'815.1
2017-Jul-24 08:00N 48°24' W 124°20'815.4
2017-Jul-24 07:30N 48°21' W 124°09'815.9
2017-Jul-24 07:00N 48°18' W 123°58'815.3
2017-Jul-24 06:30N 48°17' W 123°47'916.5
2017-Jul-24 06:00N 48°15' W 123°34'714.1
2017-Jul-24 05:30N 48°20' W 123°27'510.4
2017-Jul-24 05:01N 48°23' W 123°20'713.3
2017-Jul-24 04:31N 48°27' W 123°12'815.4
2017-Jul-24 04:01N 48°34' W 123°13'715.0
2017-Jul-24 03:31N 48°42' W 123°14'815.8
2017-Jul-24 03:00N 48°46' W 123°04'611.5
2017-Jul-24 02:30N 48°52' W 123°05'816.1
2017-Jul-24 01:59N 48°58' W 123°14'815.5
2017-Jul-24 01:30N 49°03' W 123°22'5 9.4
2017-Jul-24 00:58N 49°07' W 123°16'5 9.4
2017-Jul-24 00:29N 49°07' W 123°09'610.7
2017-Jul-23 23:57N 49°09' W 123°01'1 0.1
2017-Jul-23 12:36N 49°09' W 123°01'111.2
2017-Jul-23 12:29N 49°09' W 123°02'610.3
2017-Jul-23 11:55N 49°07' W 123°11'410.5
2017-Jul-23 11:30N 49°06' W 123°18'3 6.1
2017-Jul-23 10:59N 49°03' W 123°19'511.3
2017-Jul-23 10:30N 48°59' W 123°13'611.5
2017-Jul-23 10:00N 48°55' W 123°07'814.2
2017-Jul-23 09:27N 48°49' W 123°01'614.4
2017-Jul-23 09:00N 48°44' W 123°07'713.2
2017-Jul-23 08:30N 48°39' W 123°14'714.8
2017-Jul-23 08:01N 48°32' W 123°12'714.2
2017-Jul-23 07:31N 48°25' W 123°11'714.5
2017-Jul-23 07:00N 48°22' W 123°20'5 9.1
2017-Jul-23 06:30N 48°18' W 123°25'612.2
2017-Jul-23 06:00N 48°14' W 123°31'713.0
2017-Jul-23 05:30N 48°13' W 123°41'714.0
2017-Jul-23 04:59N 48°14' W 123°52'713.5
2017-Jul-23 04:27N 48°16' W 124°02'814.3
2017-Jul-23 03:53N 48°19' W 124°13'713.8
2017-Jul-23 03:22N 48°22' W 124°23'2613.3
2017-Jul-23 01:24N 48°29' W 125°01'1215.5
2017-Jul-23 00:38N 48°29' W 125°19'315.5
2017-Jul-23 00:27N 48°29' W 125°23'715.3
2017-Jul-23 00:00N 48°28' W 125°34'510.0
2017-Jul-22 23:30N 48°29' W 125°41'714.4
2017-Jul-22 23:00N 48°30' W 125°30'713.9
2017-Jul-22 22:30N 48°30' W 125°20'510.7
2017-Jul-22 22:01N 48°28' W 125°27'815.1
2017-Jul-22 21:31N 48°28' W 125°39'714.9
2017-Jul-22 21:00N 48°29' W 125°50'914.7
2017-Jul-22 20:22N 48°29' W 126°04'514.8
2017-Jul-22 20:00N 48°29' W 126°12'914.9
2017-Jul-22 19:26N 48°29' W 126°25'  
Track history (hours):
 
Tides and Currents Weather Stations Pressure Air Temp Water Temp Dewpoint Dewpoint Depression Visibility Wind Speed Wind Dir Waves Ship Positions

Hyundai No.107

Last reported at 2017-Jul-26 20:30 UTC. Time now 2017-Jul-26 20:36 UTC.
Position N 45°37' W 125°13'.

Length 184 m; draft 7.7 m.

Type: Cargo ship. MMSI: 636011980.

Date/timePositionNaut miles runAvg speedWind from/ knotsBaromVisibWave heightAir tempDewpointWater temp
2017-Jul-26 20:30N 45°37' W 125°13'1 1.0
2017-Jul-26 20:00N 45°38' W 125°14'1 1.1
2017-Jul-26 19:30N 45°38' W 125°14'1 1.2
2017-Jul-26 19:00N 45°39' W 125°14'1 1.3
2017-Jul-26 18:30N 45°39' W 125°15'1 1.3
2017-Jul-26 18:00N 45°40' W 125°15'1 1.4
2017-Jul-26 17:30N 45°40' W 125°16'1 1.5
2017-Jul-26 17:00N 45°41' W 125°16'1 1.6
2017-Jul-26 16:30N 45°42' W 125°17'1 1.7
2017-Jul-26 16:00N 45°42' W 125°18'1 1.7
2017-Jul-26 15:30N 45°43' W 125°19'1 1.6
2017-Jul-26 15:00N 45°44' W 125°19'1 1.2
2017-Jul-26 14:00N 45°45' W 125°20'1 1.6
2017-Jul-26 13:30N 45°46' W 125°19'1 1.5
2017-Jul-26 13:00N 45°46' W 125°19'1 1.7
2017-Jul-26 12:30N 45°47' W 125°19'1 1.7
2017-Jul-26 12:00N 45°48' W 125°19'1 1.5
2017-Jul-26 11:30N 45°49' W 125°19'1 1.5
2017-Jul-26 11:00N 45°49' W 125°19'1 1.5
2017-Jul-26 10:30N 45°50' W 125°19'1 1.5
2017-Jul-26 10:00N 45°51' W 125°19'1 1.4
2017-Jul-26 09:30N 45°52' W 125°19'1 1.5
2017-Jul-26 09:00N 45°52' W 125°19'1 1.3
2017-Jul-26 08:30N 45°53' W 125°19'1 1.3
2017-Jul-26 08:00N 45°54' W 125°20'1 1.5
2017-Jul-26 07:30N 45°54' W 125°20'1 1.5
2017-Jul-26 07:00N 45°55' W 125°21'1 1.6
2017-Jul-26 06:30N 45°56' W 125°21'1 1.6
2017-Jul-26 06:00N 45°56' W 125°22'1 1.6
2017-Jul-26 05:30N 45°57' W 125°23'1 1.6
2017-Jul-26 05:00N 45°58' W 125°23'1 1.6
2017-Jul-26 04:30N 45°59' W 125°23'1 1.8
2017-Jul-26 04:00N 45°59' W 125°23'1 2.0
2017-Jul-26 03:30N 46°00' W 125°23'1 2.2
2017-Jul-26 03:00N 46°01' W 125°22'1 2.3
2017-Jul-26 02:30N 46°03' W 125°22'1 2.3
2017-Jul-26 02:00N 46°04' W 125°21'1 2.3
2017-Jul-26 01:30N 46°05' W 125°21'1 2.2
2017-Jul-26 01:00N 46°06' W 125°21'1 2.0
2017-Jul-26 00:30N 46°07' W 125°21'1 1.9
2017-Jul-26 00:00N 46°08' W 125°22'1 1.8
2017-Jul-25 23:30N 46°08' W 125°23'1 1.8
2017-Jul-25 23:00N 46°09' W 125°23'2 1.7
2017-Jul-25 21:48N 46°11' W 125°25'1 1.8
2017-Jul-25 21:30N 46°11' W 125°26'1 1.7
2017-Jul-25 21:00N 46°12' W 125°27'4 5.6
2017-Jul-25 20:21N 46°09' W 125°23'3 9.5
2017-Jul-25 20:00N 46°07' W 125°20'5 9.5
2017-Jul-25 19:30N 46°04' W 125°15'5 9.5
2017-Jul-25 19:00N 46°00' W 125°10'5 9.1
2017-Jul-25 18:30N 45°57' W 125°05'5 9.2
2017-Jul-25 18:00N 45°54' W 124°60'5 9.1
2017-Jul-25 17:30N 45°51' W 124°55'5 9.2
2017-Jul-25 17:00N 45°48' W 124°50'5 9.3
2017-Jul-25 16:30N 45°45' W 124°46'5 9.3
2017-Jul-25 16:00N 45°41' W 124°41'5 9.6
2017-Jul-25 15:30N 45°38' W 124°36'5 9.3
2017-Jul-25 15:00N 45°35' W 124°31'1 1.2
2017-Jul-25 14:00N 45°36' W 124°31'1 2.0
2017-Jul-25 13:30N 45°37' W 124°32'1 2.1
2017-Jul-25 13:00N 45°38' W 124°33'1 2.2
2017-Jul-25 12:30N 45°39' W 124°34'1 2.2
2017-Jul-25 12:00N 45°40' W 124°35'1 2.1
2017-Jul-25 11:30N 45°41' W 124°35'1 2.1
2017-Jul-25 11:00N 45°41' W 124°36'1 2.1
2017-Jul-25 10:30N 45°42' W 124°37'1 2.1
2017-Jul-25 10:00N 45°43' W 124°38'1 2.0
2017-Jul-25 09:30N 45°44' W 124°39'1 2.0
2017-Jul-25 09:00N 45°45' W 124°40'1 1.9
2017-Jul-25 08:30N 45°45' W 124°41'1 1.8
2017-Jul-25 08:00N 45°46' W 124°42'1 2.0
2017-Jul-25 07:30N 45°47' W 124°42'1 2.0
2017-Jul-25 07:00N 45°48' W 124°43'1 2.3
2017-Jul-25 06:30N 45°49' W 124°43'1 2.2
2017-Jul-25 06:00N 45°50' W 124°44'1 2.2
2017-Jul-25 05:30N 45°51' W 124°45'1 2.3
2017-Jul-25 05:00N 45°52' W 124°45'1 2.3
2017-Jul-25 04:30N 45°53' W 124°46'1 2.3
2017-Jul-25 04:00N 45°54' W 124°47'1 2.0
2017-Jul-25 03:30N 45°55' W 124°48'1 2.1
2017-Jul-25 03:00N 45°56' W 124°49'1 2.1
2017-Jul-25 02:24N 45°57' W 124°49'1 2.2
2017-Jul-25 02:00N 45°58' W 124°50'1 2.2
2017-Jul-25 01:30N 45°59' W 124°51'1 2.1
2017-Jul-25 01:00N 45°59' W 124°51'1 2.2
2017-Jul-25 00:30N 46°00' W 124°52'1 2.4
2017-Jul-25 00:00N 46°02' W 124°53'1 2.4
2017-Jul-24 23:30N 46°03' W 124°54'1 2.4
2017-Jul-24 23:00N 46°04' W 124°54'1 2.5
2017-Jul-24 22:30N 46°05' W 124°55'1 2.4
2017-Jul-24 22:00N 46°06' W 124°56'1 2.4
2017-Jul-24 21:30N 46°07' W 124°57'1 2.5
2017-Jul-24 21:00N 46°08' W 124°58'1 2.4
2017-Jul-24 20:30N 46°09' W 124°59'1 2.3
2017-Jul-24 20:00N 46°10' W 125°00'3 5.3
2017-Jul-24 19:30N 46°12' W 125°00'714.3
2017-Jul-24 19:00N 46°20' W 125°00'815.7
2017-Jul-24 18:30N 46°27' W 125°00'815.6
2017-Jul-24 18:00N 46°35' W 125°00'815.4
2017-Jul-24 17:30N 46°43' W 125°01'815.4
2017-Jul-24 17:00N 46°50' W 125°04'815.4
2017-Jul-24 16:30N 46°58' W 125°06'815.5
2017-Jul-24 16:00N 47°05' W 125°09'5415.8
2017-Jul-24 12:35N 47°58' W 125°29'215.9
2017-Jul-24 12:28N 47°59' W 125°30'715.0
2017-Jul-24 11:59N 48°06' W 125°25'815.1
2017-Jul-24 11:27N 48°12' W 125°18'715.2
2017-Jul-24 11:00N 48°18' W 125°13'714.3
2017-Jul-24 10:30N 48°24' W 125°07'714.2
2017-Jul-24 10:00N 48°30' W 125°02'713.9
2017-Jul-24 09:31N 48°31' W 124°52'714.9
2017-Jul-24 09:01N 48°30' W 124°41'714.9
2017-Jul-24 08:30N 48°27' W 124°30'815.1
2017-Jul-24 08:00N 48°24' W 124°20'815.4
2017-Jul-24 07:30N 48°21' W 124°09'815.9
2017-Jul-24 07:00N 48°18' W 123°58'815.3
2017-Jul-24 06:30N 48°17' W 123°47'916.5
2017-Jul-24 06:00N 48°15' W 123°34'714.1
2017-Jul-24 05:30N 48°20' W 123°27'510.4
2017-Jul-24 05:01N 48°23' W 123°20'713.3
2017-Jul-24 04:31N 48°27' W 123°12'815.4
2017-Jul-24 04:01N 48°34' W 123°13'715.0
2017-Jul-24 03:31N 48°42' W 123°14'815.8
2017-Jul-24 03:00N 48°46' W 123°04'611.5
2017-Jul-24 02:30N 48°52' W 123°05'816.1
2017-Jul-24 01:59N 48°58' W 123°14'815.5
2017-Jul-24 01:30N 49°03' W 123°22'5 9.4
2017-Jul-24 00:58N 49°07' W 123°16'5 9.4
2017-Jul-24 00:29N 49°07' W 123°09'610.7
2017-Jul-23 23:57N 49°09' W 123°01'1 0.1
2017-Jul-23 12:36N 49°09' W 123°01'111.2
2017-Jul-23 12:29N 49°09' W 123°02'610.3
2017-Jul-23 11:55N 49°07' W 123°11'410.5
2017-Jul-23 11:30N 49°06' W 123°18'3 6.1
2017-Jul-23 10:59N 49°03' W 123°19'511.3
2017-Jul-23 10:30N 48°59' W 123°13'611.5
2017-Jul-23 10:00N 48°55' W 123°07'814.2
2017-Jul-23 09:27N 48°49' W 123°01'614.4
2017-Jul-23 09:00N 48°44' W 123°07'713.2
2017-Jul-23 08:30N 48°39' W 123°14'714.8
2017-Jul-23 08:01N 48°32' W 123°12'714.2
2017-Jul-23 07:31N 48°25' W 123°11'714.5
2017-Jul-23 07:00N 48°22' W 123°20'5 9.1
2017-Jul-23 06:30N 48°18' W 123°25'612.2
2017-Jul-23 06:00N 48°14' W 123°31'713.0
2017-Jul-23 05:30N 48°13' W 123°41'714.0
2017-Jul-23 04:59N 48°14' W 123°52'713.5
2017-Jul-23 04:27N 48°16' W 124°02'814.3
2017-Jul-23 03:53N 48°19' W 124°13'713.8
2017-Jul-23 03:22N 48°22' W 124°23'2613.3
2017-Jul-23 01:24N 48°29' W 125°01'1215.5
2017-Jul-23 00:38N 48°29' W 125°19'315.5
2017-Jul-23 00:27N 48°29' W 125°23'715.3
2017-Jul-23 00:00N 48°28' W 125°34'510.0
2017-Jul-22 23:30N 48°29' W 125°41'714.4
2017-Jul-22 23:00N 48°30' W 125°30'713.9
2017-Jul-22 22:30N 48°30' W 125°20'510.7
2017-Jul-22 22:01N 48°28' W 125°27'815.1
2017-Jul-22 21:31N 48°28' W 125°39'714.9
2017-Jul-22 21:00N 48°29' W 125°50'914.7
2017-Jul-22 20:22N 48°29' W 126°04'514.8
2017-Jul-22 20:00N 48°29' W 126°12'914.9
2017-Jul-22 19:26N 48°29' W 126°25'  

Dump ship's entire track history